createdAt,value
2023-02-24T00:00:38.562Z,35.13
2023-02-24T00:03:11.541Z,34.58
2023-02-24T00:05:44.383Z,36.80
2023-02-24T00:08:13.965Z,39.03
2023-02-24T00:10:41.995Z,38.30
2023-02-24T00:13:12.009Z,38.15
2023-02-24T00:15:40.021Z,36.78
2023-02-24T00:18:08.622Z,37.50
2023-02-24T00:20:37.434Z,38.78
2023-02-24T00:23:05.490Z,41.78
2023-02-24T00:25:34.815Z,38.30
2023-02-24T00:28:02.763Z,37.65
2023-02-24T00:30:33.046Z,37.15
2023-02-24T00:33:03.496Z,36.38
2023-02-24T00:35:32.219Z,39.55
2023-02-24T00:38:00.864Z,36.38
2023-02-24T00:40:30.806Z,39.45
2023-02-24T00:43:02.122Z,40.97
2023-02-24T00:45:30.997Z,37.85
2023-02-24T00:47:59.094Z,37.85
2023-02-24T00:50:27.351Z,39.25
2023-02-24T00:52:55.272Z,41.92
2023-02-24T00:55:23.364Z,38.33
2023-02-24T00:57:51.929Z,37.33
2023-02-24T01:00:23.475Z,40.47
2023-02-24T01:02:52.314Z,39.28
2023-02-24T01:05:21.201Z,38.13
2023-02-24T01:07:49.184Z,38.38
2023-02-24T01:10:18.345Z,38.38
2023-02-24T01:12:51.062Z,42.70
2023-02-24T01:15:23.147Z,38.10
2023-02-24T01:17:51.276Z,39.85
2023-02-24T01:20:19.684Z,41.08
2023-02-24T01:22:49.602Z,38.95
2023-02-24T01:25:19.979Z,38.25
2023-02-24T01:27:48.064Z,34.63
2023-02-24T01:30:17.598Z,36.05
2023-02-24T01:32:48.206Z,37.22
2023-02-24T01:35:17.700Z,35.50
2023-02-24T01:37:45.917Z,32.50
2023-02-24T01:40:20.959Z,35.65
2023-02-24T01:42:50.581Z,35.97
2023-02-24T01:45:22.831Z,34.70
2023-02-24T01:47:54.091Z,35.88
2023-02-24T01:50:26.138Z,33.88
2023-02-24T01:52:58.865Z,32.75
2023-02-24T01:55:32.096Z,35.80
2023-02-24T01:58:04.998Z,32.88
2023-02-24T02:00:37.837Z,35.78
2023-02-24T02:03:20.161Z,37.42
2023-02-24T02:05:49.228Z,36.03
2023-02-24T02:08:19.570Z,37.20
2023-02-24T02:10:48.882Z,36.72
2023-02-24T02:13:21.193Z,35.53
2023-02-24T02:16:04.017Z,38.20
2023-02-24T02:18:43.343Z,32.90
2023-02-24T02:21:36.343Z,35.03
2023-02-24T02:24:21.038Z,35.33
2023-02-24T02:27:23.349Z,34.88
2023-02-24T02:30:24.508Z,35.95
2023-02-24T02:33:27.547Z,34.75
2023-02-24T02:36:07.332Z,30.17
2023-02-24T02:38:43.778Z,34.38
2023-02-24T02:41:21.874Z,34.17
2023-02-24T02:43:54.626Z,35.83
2023-02-24T02:46:34.933Z,34.88
2023-02-24T02:49:14.924Z,37.15
2023-02-24T02:51:51.711Z,35.65
2023-02-24T02:54:27.140Z,32.85
2023-02-24T02:57:01.411Z,33.55
2023-02-24T02:59:32.324Z,34.25
2023-02-24T03:02:11.761Z,33.58
2023-02-24T03:04:43.482Z,32.92
2023-02-24T03:07:17.786Z,34.55
2023-02-24T03:09:51.802Z,34.70
2023-02-24T03:12:22.933Z,34.05
2023-02-24T03:14:59.138Z,30.30
2023-02-24T03:17:31.757Z,33.60
2023-02-24T03:20:15.519Z,33.00
2023-02-24T03:22:50.031Z,31.92
2023-02-24T03:25:24.112Z,31.67
2023-02-24T03:27:57.550Z,32.38
2023-02-24T03:30:33.364Z,33.63
2023-02-24T03:33:06.389Z,33.08
2023-02-24T03:35:39.895Z,33.20
2023-02-24T03:38:10.583Z,33.85
2023-02-24T03:40:39.403Z,32.35
2023-02-24T03:43:16.956Z,37.85
2023-02-24T03:45:46.650Z,33.00
2023-02-24T03:48:14.934Z,35.40
2023-02-24T03:50:46.785Z,34.88
2023-02-24T03:53:49.233Z,32.65
2023-02-24T03:56:29.787Z,30.45
2023-02-24T03:59:13.064Z,32.47
2023-02-24T04:01:49.803Z,32.25
2023-02-24T04:04:27.471Z,31.58
2023-02-24T04:07:10.532Z,34.55
2023-02-24T04:09:44.185Z,34.25
2023-02-24T04:12:22.455Z,31.27
2023-02-24T04:15:15.468Z,35.85
2023-02-24T04:17:49.433Z,31.25
2023-02-24T04:20:20.616Z,32.17
2023-02-24T04:22:59.888Z,30.23
2023-02-24T04:25:31.113Z,33.55
2023-02-24T04:28:01.951Z,34.83
2023-02-24T04:30:35.104Z,33.33
2023-02-24T04:33:03.851Z,34.28
2023-02-24T04:35:33.104Z,32.95
2023-02-24T04:38:02.096Z,31.30
2023-02-24T04:40:31.778Z,35.25
2023-02-24T04:43:00.033Z,34.53
2023-02-24T04:45:31.121Z,34.25
2023-02-24T04:48:02.216Z,34.85
2023-02-24T04:50:32.979Z,34.75
2023-02-24T04:53:03.089Z,32.83
2023-02-24T04:55:34.073Z,34.45
2023-02-24T04:58:03.001Z,31.67
2023-02-24T05:00:35.843Z,33.13
2023-02-24T05:03:05.945Z,34.10
2023-02-24T05:05:34.301Z,40.65
2023-02-24T05:08:03.969Z,43.38
2023-02-24T05:10:38.907Z,44.65
2023-02-24T05:13:09.138Z,46.33
2023-02-24T05:15:41.168Z,43.00
2023-02-24T05:18:14.072Z,45.90
2023-02-24T05:21:01.951Z,48.67
2023-02-24T05:23:33.398Z,42.97
2023-02-24T05:26:08.357Z,42.00
2023-02-24T05:28:37.066Z,42.47
2023-02-24T05:31:08.420Z,49.20
2023-02-24T05:33:37.863Z,46.58
2023-02-24T05:36:08.611Z,45.42
2023-02-24T05:38:38.222Z,46.42
2023-02-24T05:41:09.119Z,41.30
2023-02-24T05:43:39.770Z,42.13
2023-02-24T05:46:07.727Z,48.35
2023-02-24T05:48:36.083Z,46.10
2023-02-24T05:51:08.025Z,45.50
2023-02-24T05:53:36.570Z,43.35
2023-02-24T05:56:05.968Z,46.70
2023-02-24T05:58:36.493Z,45.75
2023-02-24T06:01:16.216Z,47.38
2023-02-24T06:03:47.958Z,47.50
2023-02-24T06:06:16.765Z,46.28
2023-02-24T06:08:50.135Z,46.28
2023-02-24T06:11:20.833Z,44.15
2023-02-24T06:13:50.650Z,47.45
2023-02-24T06:16:19.708Z,44.10
2023-02-24T06:18:50.511Z,43.50
2023-02-24T06:21:19.363Z,44.33
2023-02-24T06:23:47.448Z,42.53
2023-02-24T06:26:19.477Z,44.15
2023-02-24T06:28:49.994Z,42.65
2023-02-24T06:31:21.544Z,43.05
2023-02-24T06:33:50.110Z,41.97
2023-02-24T06:36:18.107Z,39.85
2023-02-24T06:38:46.220Z,39.58
2023-02-24T06:41:14.273Z,38.70
2023-02-24T06:43:44.144Z,42.17
2023-02-24T06:46:16.757Z,36.67
2023-02-24T06:48:48.196Z,37.42
2023-02-24T06:51:17.657Z,39.38
2023-02-24T06:53:45.939Z,37.92
2023-02-24T06:56:19.892Z,37.28
2023-02-24T06:58:52.106Z,38.28
2023-02-24T07:01:22.304Z,36.53
2023-02-24T07:04:17.741Z,35.55
2023-02-24T07:06:49.489Z,33.10
2023-02-24T07:09:19.673Z,35.05
2023-02-24T07:11:52.215Z,37.28
2023-02-24T07:14:21.866Z,35.00
2023-02-24T07:16:54.622Z,35.33
2023-02-24T07:19:27.169Z,31.17
2023-02-24T07:22:00.403Z,33.10
2023-02-24T07:24:33.166Z,32.97
2023-02-24T07:27:03.194Z,31.58
2023-02-24T07:29:33.466Z,33.30
2023-02-24T07:32:03.767Z,35.35
2023-02-24T07:34:34.922Z,32.67
2023-02-24T07:37:08.128Z,36.88
2023-02-24T07:39:37.584Z,38.00
2023-02-24T07:42:06.317Z,37.88
2023-02-24T07:44:46.765Z,39.58
2023-02-24T07:47:16.006Z,35.35
2023-02-24T07:49:45.860Z,31.75
2023-02-24T07:52:13.874Z,40.65
2023-02-24T07:54:41.969Z,38.40
2023-02-24T07:57:13.966Z,36.55
2023-02-24T07:59:45.511Z,30.27
2023-02-24T08:02:14.182Z,21.88
2023-02-24T08:04:48.243Z,31.80
2023-02-24T08:07:17.844Z,27.45
2023-02-24T08:10:08.668Z,26.50
2023-02-24T08:12:42.640Z,22.60
2023-02-24T08:15:18.140Z,27.33
2023-02-24T08:17:47.578Z,30.63
2023-02-24T08:20:29.919Z,27.25
2023-02-24T08:22:59.534Z,28.17
2023-02-24T08:25:35.787Z,27.67
2023-02-24T08:28:09.454Z,27.23
2023-02-24T08:30:39.985Z,20.35
2023-02-24T08:33:11.204Z,26.10
2023-02-24T08:35:44.781Z,25.50
2023-02-24T08:38:17.319Z,21.70
2023-02-24T08:40:52.108Z,42.53
2023-02-24T08:43:32.784Z,38.47
2023-02-24T08:46:05.582Z,29.35
2023-02-24T08:48:42.366Z,34.90
2023-02-24T08:51:17.705Z,28.70
2023-02-24T08:53:47.651Z,29.85
2023-02-24T08:56:24.267Z,22.35
2023-02-24T08:58:57.162Z,24.80
2023-02-24T09:01:34.378Z,26.20
2023-02-24T09:04:04.650Z,21.42
2023-02-24T09:06:39.703Z,19.92
2023-02-24T09:09:18.658Z,22.45
2023-02-24T09:11:48.132Z,20.77
2023-02-24T09:14:26.446Z,21.92
2023-02-24T09:17:07.175Z,23.35
2023-02-24T09:19:58.340Z,23.02
2023-02-24T09:22:40.998Z,24.63
2023-02-24T09:25:29.180Z,25.50
2023-02-24T09:28:08.394Z,28.25
2023-02-24T09:30:39.245Z,30.17
2023-02-24T09:33:18.639Z,32.17
2023-02-24T09:36:09.928Z,34.35
2023-02-24T09:38:57.542Z,31.67
2023-02-24T09:41:53.477Z,23.45
2023-02-24T09:44:27.130Z,19.42
2023-02-24T09:47:08.892Z,23.52
2023-02-24T09:49:50.751Z,23.67
2023-02-24T09:52:20.123Z,24.38
2023-02-24T09:55:10.820Z,21.63
2023-02-24T09:58:11.982Z,20.20
2023-02-24T10:00:44.976Z,23.80
2023-02-24T10:03:41.609Z,21.85
2023-02-24T10:06:20.988Z,23.38
2023-02-24T10:08:59.137Z,27.00
2023-02-24T10:11:33.968Z,25.90
2023-02-24T10:14:07.046Z,59.30
2023-02-24T10:16:46.293Z,36.83
2023-02-24T10:19:26.762Z,51.05
2023-02-24T10:22:03.047Z,45.38
2023-02-24T10:24:38.198Z,52.58
2023-02-24T10:27:16.676Z,41.78
2023-02-24T10:30:05.812Z,29.60
2023-02-24T10:32:43.328Z,27.95
2023-02-24T10:35:16.716Z,25.95
2023-02-24T10:37:45.103Z,24.75
2023-02-24T10:40:24.893Z,23.30
2023-02-24T10:43:03.833Z,22.75
2023-02-24T10:45:45.140Z,19.90
2023-02-24T10:48:40.193Z,22.77
2023-02-24T10:51:20.186Z,19.00
2023-02-24T10:54:10.172Z,18.30
2023-02-24T10:56:44.617Z,22.00
2023-02-24T10:59:32.965Z,24.48
2023-02-24T11:02:24.748Z,24.73
2023-02-24T11:05:04.622Z,24.10
2023-02-24T11:07:45.275Z,24.27
2023-02-24T11:10:26.094Z,23.13
2023-02-24T11:13:18.979Z,24.02
2023-02-24T11:16:07.431Z,25.58
2023-02-24T11:18:38.821Z,25.50
2023-02-24T11:21:09.975Z,23.85
2023-02-24T11:23:43.165Z,25.40
2023-02-24T11:26:17.712Z,22.67
2023-02-24T11:28:57.488Z,26.45
2023-02-24T11:31:42.134Z,24.17
2023-02-24T11:34:20.250Z,22.38
2023-02-24T11:36:54.556Z,24.90
2023-02-24T11:39:47.455Z,25.83
2023-02-24T11:42:20.496Z,25.55
2023-02-24T11:44:54.648Z,25.33
2023-02-24T11:47:30.116Z,22.67
2023-02-24T11:50:08.807Z,25.60
2023-02-24T11:52:42.153Z,22.90
2023-02-24T11:55:20.551Z,33.63
2023-02-24T11:57:54.808Z,31.25
2023-02-24T12:00:26.885Z,25.13
2023-02-24T12:03:02.251Z,22.60
2023-02-24T12:05:37.382Z,23.83
2023-02-24T12:08:13.514Z,23.77
2023-02-24T12:10:47.705Z,23.75
2023-02-24T12:13:22.661Z,19.60
2023-02-24T12:16:00.022Z,20.42
2023-02-24T12:18:33.317Z,25.90
2023-02-24T12:21:08.646Z,25.80
2023-02-24T12:23:39.445Z,23.58
2023-02-24T12:26:19.966Z,26.08
2023-02-24T12:29:16.786Z,27.25
2023-02-24T12:31:54.495Z,32.25
2023-02-24T12:34:36.219Z,27.70
2023-02-24T12:37:35.893Z,32.88
2023-02-24T12:40:16.388Z,28.17
2023-02-24T12:42:52.473Z,31.15
2023-02-24T12:45:28.874Z,33.80
2023-02-24T12:48:10.694Z,35.45
2023-02-24T12:50:49.868Z,41.55
2023-02-24T12:53:24.412Z,41.05
2023-02-24T12:56:13.579Z,42.40
2023-02-24T12:58:46.682Z,39.00
2023-02-24T13:01:23.456Z,44.25
2023-02-24T13:04:05.640Z,46.80
2023-02-24T13:06:48.213Z,46.45
2023-02-24T13:09:29.345Z,42.95
2023-02-24T13:12:03.016Z,43.33
2023-02-24T13:14:34.847Z,46.03
2023-02-24T13:17:20.213Z,49.15
2023-02-24T13:19:49.413Z,51.58
2023-02-24T13:22:27.552Z,48.95
2023-02-24T13:25:04.788Z,46.67
2023-02-24T13:27:36.104Z,45.53
2023-02-24T13:30:24.714Z,41.67
2023-02-24T13:33:02.985Z,42.47
2023-02-24T13:35:34.560Z,44.13
2023-02-24T13:38:24.938Z,40.35
2023-02-24T13:40:54.508Z,43.97
2023-02-24T13:43:26.921Z,42.67
2023-02-24T13:45:59.441Z,42.72
2023-02-24T13:48:54.957Z,42.83
2023-02-24T13:51:51.465Z,45.45
2023-02-24T13:54:46.853Z,42.80
2023-02-24T13:57:40.127Z,41.90
2023-02-24T14:00:16.239Z,45.60
2023-02-24T14:02:44.950Z,46.10
2023-02-24T14:05:20.542Z,46.33
2023-02-24T14:07:51.287Z,44.42
2023-02-24T14:10:23.194Z,44.22
2023-02-24T14:13:04.140Z,44.10
2023-02-24T14:15:33.131Z,43.03
2023-02-24T14:18:02.724Z,43.92
2023-02-24T14:20:33.260Z,45.00
2023-02-24T14:23:02.321Z,44.90
2023-02-24T14:25:35.502Z,42.00
2023-02-24T14:28:05.418Z,43.85
2023-02-24T14:30:36.583Z,19.33
2023-02-24T14:33:07.112Z,2.08
2023-02-24T14:35:37.702Z,62.50
2023-02-24T14:38:06.255Z,22.65
2023-02-24T14:40:34.626Z,26.58
2023-02-24T14:43:03.927Z,13.43
2023-02-24T14:45:32.071Z,10.15
2023-02-24T14:48:00.176Z,10.35
2023-02-24T14:50:31.270Z,11.63
2023-02-24T14:53:05.026Z,24.60
2023-02-24T14:55:37.192Z,5.35
2023-02-24T14:58:13.724Z,4.70
2023-02-24T15:00:47.457Z,4.65
2023-02-24T15:03:22.252Z,4.90
2023-02-24T15:05:53.562Z,4.97
2023-02-24T15:08:37.552Z,4.80
2023-02-24T15:11:19.567Z,5.47
2023-02-24T15:13:52.259Z,2.90
2023-02-24T15:16:25.004Z,3.42
2023-02-24T15:18:54.564Z,5.15
2023-02-24T15:21:24.968Z,7.00
2023-02-24T15:24:00.742Z,2.58
2023-02-24T15:26:31.479Z,8.40
2023-02-24T15:29:03.428Z,7.40
2023-02-24T15:31:31.818Z,5.15
2023-02-24T15:34:02.259Z,5.47
2023-02-24T15:36:33.987Z,19.02
2023-02-24T15:39:06.609Z,9.60
2023-02-24T15:41:43.354Z,5.40
2023-02-24T15:44:27.165Z,4.93
2023-02-24T15:46:56.025Z,3.13
2023-02-24T15:49:24.007Z,3.15
2023-02-24T15:51:53.857Z,6.20
2023-02-24T15:54:29.209Z,3.33
2023-02-24T15:56:59.239Z,2.85
2023-02-24T15:59:29.472Z,4.15
2023-02-24T16:01:57.694Z,4.90
2023-02-24T16:04:27.521Z,5.18
2023-02-24T16:06:58.696Z,5.57
2023-02-24T16:09:33.525Z,2.53
2023-02-24T16:12:03.474Z,2.55
2023-02-24T16:14:34.076Z,2.97
2023-02-24T16:17:03.728Z,2.47
2023-02-24T16:19:31.665Z,4.70
2023-02-24T16:21:59.606Z,2.85
2023-02-24T16:24:27.616Z,3.42
2023-02-24T16:26:55.604Z,4.75
2023-02-24T16:29:23.627Z,2.33
2023-02-24T16:31:53.183Z,1.73
2023-02-24T16:34:21.423Z,1.92
2023-02-24T16:36:49.504Z,4.32
2023-02-24T16:39:17.576Z,1.98
2023-02-24T16:41:45.506Z,2.15
2023-02-24T16:44:14.310Z,0.93
2023-02-24T16:46:45.652Z,1.80
2023-02-24T16:49:21.066Z,4.00
2023-02-24T16:51:49.101Z,1.48
2023-02-24T16:54:17.063Z,1.13
2023-02-24T16:56:45.334Z,1.48
2023-02-24T16:59:13.330Z,1.95
2023-02-24T17:01:41.541Z,2.67
2023-02-24T17:04:11.060Z,1.55
2023-02-24T17:06:40.494Z,1.77
2023-02-24T17:09:08.554Z,1.33
2023-02-24T17:11:36.456Z,2.65
2023-02-24T17:14:04.565Z,1.67
2023-02-24T17:16:32.718Z,3.72
2023-02-24T17:19:00.776Z,0.65
2023-02-24T17:21:28.820Z,2.67
2023-02-24T17:23:58.171Z,1.20
2023-02-24T17:26:26.392Z,2.00
2023-02-24T17:28:54.399Z,2.88
2023-02-24T17:31:22.969Z,2.25
2023-02-24T17:33:51.112Z,1.52
2023-02-24T17:36:19.526Z,2.83
2023-02-24T17:38:47.628Z,1.55
2023-02-24T17:41:17.013Z,1.60
2023-02-24T17:43:45.085Z,2.08
2023-02-24T17:46:13.124Z,2.22
2023-02-24T17:48:41.279Z,1.92
2023-02-24T17:51:13.566Z,2.47
2023-02-24T17:53:41.757Z,2.58
2023-02-24T17:56:10.550Z,2.90
2023-02-24T17:58:40.489Z,1.05
2023-02-24T18:01:08.910Z,1.50
2023-02-24T18:03:37.681Z,1.42
2023-02-24T18:06:08.651Z,1.33
2023-02-24T18:08:38.620Z,1.55
2023-02-24T18:11:08.305Z,3.33
2023-02-24T18:13:36.375Z,1.85
2023-02-24T18:16:09.640Z,1.50
2023-02-24T18:18:37.712Z,1.58
2023-02-24T18:21:07.027Z,1.83
2023-02-24T18:23:35.092Z,1.05
2023-02-24T18:26:03.849Z,1.70
2023-02-24T18:28:31.931Z,2.22
2023-02-24T18:31:00.651Z,1.63
2023-02-24T18:33:30.589Z,1.75
2023-02-24T18:35:59.813Z,1.90
2023-02-24T18:38:27.835Z,1.83
2023-02-24T18:40:59.869Z,2.03
2023-02-24T18:43:28.032Z,1.23
2023-02-24T18:45:59.993Z,1.42
2023-02-24T18:48:30.944Z,1.40
2023-02-24T18:50:59.574Z,1.65
2023-02-24T18:53:29.416Z,1.73
2023-02-24T18:56:01.756Z,1.48
2023-02-24T18:58:30.034Z,1.35
2023-02-24T19:00:58.075Z,1.75
2023-02-24T19:03:26.337Z,2.00
2023-02-24T19:05:55.734Z,2.00
2023-02-24T19:08:23.768Z,1.60
2023-02-24T19:10:51.753Z,1.50
2023-02-24T19:13:19.691Z,1.33
2023-02-24T19:15:48.390Z,1.23
2023-02-24T19:18:17.022Z,1.30
2023-02-24T19:20:45.256Z,3.45
2023-02-24T19:23:14.660Z,1.67
2023-02-24T19:25:42.748Z,4.28
2023-02-24T19:28:10.743Z,1.70
2023-02-24T19:30:39.987Z,3.17
2023-02-24T19:33:09.622Z,1.50
2023-02-24T19:35:41.669Z,1.92
2023-02-24T19:38:10.137Z,1.17
2023-02-24T19:40:39.438Z,2.05
2023-02-24T19:43:07.627Z,0.77
2023-02-24T19:45:35.704Z,1.40
2023-02-24T19:48:03.768Z,1.83
2023-02-24T19:50:31.815Z,1.50
2023-02-24T19:52:59.708Z,1.70
2023-02-24T19:55:27.813Z,1.10
2023-02-24T19:57:57.188Z,2.28
2023-02-24T20:00:25.237Z,0.82
2023-02-24T20:02:53.374Z,2.10
2023-02-24T20:05:21.345Z,1.38
2023-02-24T20:07:49.449Z,1.17
2023-02-24T20:10:18.988Z,1.90
2023-02-24T20:12:46.940Z,2.28
2023-02-24T20:15:16.528Z,1.20
2023-02-24T20:17:44.487Z,2.53
2023-02-24T20:20:13.442Z,1.40
2023-02-24T20:22:41.385Z,1.10
2023-02-24T20:25:10.711Z,1.00
2023-02-24T20:27:38.694Z,2.20
2023-02-24T20:30:07.519Z,1.52
2023-02-24T20:32:37.047Z,1.52
2023-02-24T20:35:05.350Z,1.33
2023-02-24T20:37:33.426Z,1.83
2023-02-24T20:40:01.385Z,2.03
2023-02-24T20:42:29.380Z,0.98
2023-02-24T20:44:57.531Z,1.27
2023-02-24T20:47:25.527Z,1.63
2023-02-24T20:49:55.045Z,0.98
2023-02-24T20:52:23.236Z,0.95
2023-02-24T20:54:51.392Z,1.60
2023-02-24T20:57:19.312Z,1.08
2023-02-24T21:00:01.546Z,1.63
2023-02-24T21:02:31.164Z,1.27
2023-02-24T21:05:00.714Z,1.38
2023-02-24T21:07:28.817Z,2.33
2023-02-24T21:09:56.876Z,1.40
2023-02-24T21:12:24.970Z,1.05
2023-02-24T21:14:53.119Z,1.73
2023-02-24T21:17:21.104Z,2.17
2023-02-24T21:19:49.818Z,2.30
2023-02-24T21:22:19.310Z,1.65
2023-02-24T21:24:47.356Z,1.10
2023-02-24T21:27:15.413Z,0.98
2023-02-24T21:29:43.660Z,0.73
2023-02-24T21:32:11.843Z,1.92
2023-02-24T21:34:39.891Z,1.30
2023-02-24T21:37:07.920Z,0.80
2023-02-24T21:39:37.358Z,1.42
2023-02-24T21:42:07.419Z,1.38
2023-02-24T21:44:35.384Z,2.28
2023-02-24T21:47:03.345Z,2.05
2023-02-24T21:49:31.403Z,1.55
2023-02-24T21:51:59.411Z,1.40
2023-02-24T21:54:27.802Z,1.45
2023-02-24T21:56:57.220Z,1.65
2023-02-24T21:59:25.227Z,3.47
2023-02-24T22:01:54.287Z,1.02
2023-02-24T22:04:23.328Z,1.15
2023-02-24T22:06:51.289Z,1.70
2023-02-24T22:09:20.234Z,1.88
2023-02-24T22:11:50.000Z,1.02
2023-02-24T22:14:19.402Z,1.70
2023-02-24T22:16:47.447Z,1.35
2023-02-24T22:19:15.696Z,2.60
2023-02-24T22:21:43.831Z,1.45
2023-02-24T22:24:14.505Z,1.55
2023-02-24T22:26:43.418Z,1.67
2023-02-24T22:29:11.646Z,1.65
2023-02-24T22:31:43.608Z,3.28
2023-02-24T22:34:13.131Z,1.88
2023-02-24T22:36:41.432Z,1.95
2023-02-24T22:39:09.625Z,2.10
2023-02-24T22:41:38.304Z,1.60
2023-02-24T22:44:07.444Z,1.27
2023-02-24T22:46:37.771Z,1.20
2023-02-24T22:49:07.700Z,2.55
2023-02-24T22:51:35.674Z,3.35
2023-02-24T22:54:03.806Z,1.10
2023-02-24T22:56:32.647Z,2.10
2023-02-24T22:59:00.775Z,0.95
2023-02-24T23:01:31.068Z,1.60
2023-02-24T23:04:01.828Z,1.10
2023-02-24T23:06:31.822Z,2.95
2023-02-24T23:09:01.592Z,5.15
2023-02-24T23:11:32.227Z,4.28
2023-02-24T23:14:02.101Z,2.00
2023-02-24T23:16:32.324Z,1.77
2023-02-24T23:19:04.228Z,1.58
2023-02-24T23:21:37.825Z,1.40
2023-02-24T23:24:07.209Z,1.20
2023-02-24T23:26:36.978Z,1.95
2023-02-24T23:29:06.534Z,1.48
2023-02-24T23:31:35.670Z,2.38
2023-02-24T23:34:07.171Z,1.33
2023-02-24T23:36:38.450Z,1.90
2023-02-24T23:39:07.797Z,1.98
2023-02-24T23:41:36.385Z,1.52
2023-02-24T23:44:04.589Z,1.45
2023-02-24T23:46:33.415Z,1.58
2023-02-24T23:49:01.969Z,1.60
2023-02-24T23:51:45.655Z,1.00
2023-02-24T23:54:17.434Z,1.60
2023-02-24T23:56:45.361Z,1.25
2023-02-24T23:59:13.325Z,3.28
